Time;durP1;ratioP1;P1;durP2;ratioP2;P2;SDS_P1;SDS_P2;PMS_P1;PMS_P2;Temp;Humidity;BMP_temperature;BMP_pressure;BME280_temperature;BME280_humidity;BME280_pressure;Samples;Min_cycle;Max_cycle;Signal;HPM_P1;HPM_P2
2021/06/21 00:02:07;;;;;;;12.27;2.70;;;;;;;;;;4993528;28;20190;-73
2021/06/21 00:05:14;;;;;;;10.57;2.43;;;;;;;;;;5013807;28;20182;-73
2021/06/21 00:08:18;;;;;;;7.80;2.20;;;;;;;;;;5003666;28;20221;-73
2021/06/21 00:11:23;;;;;;;8.63;2.30;;;;;;;;;;5014615;28;20640;-73
2021/06/21 00:14:26;;;;;;;8.43;2.37;;;;;;;;;;5016811;28;20532;-73
2021/06/21 00:17:31;;;;;;;8.00;2.40;;;;;;;;;;4994852;28;20225;-73
2021/06/21 00:20:35;;;;;;;8.93;2.43;;;;;;;;;;4977779;28;20222;-74
2021/06/21 00:23:40;;;;;;;10.80;2.50;;;;;;;;;;4978230;28;20182;-74
2021/06/21 00:26:45;;;;;;;5.90;1.90;;;;;;;;;;4977846;28;20210;-74
2021/06/21 00:29:49;;;;;;;8.77;2.53;;;;;;;;;;5001896;28;20189;-73
2021/06/21 00:32:55;;;;;;;6.30;2.10;;;;;;;;;;4996855;28;20194;-73
2021/06/21 00:35:59;;;;;;;9.70;2.37;;;;;;;;;;5008723;28;20225;-73
2021/06/21 00:39:06;;;;;;;12.63;2.83;;;;;;;;;;5004463;28;20198;-73
2021/06/21 00:42:10;;;;;;;8.03;2.47;;;;;;;;;;4990837;28;20558;-73
2021/06/21 00:45:17;;;;;;;7.07;2.63;;;;;;;;;;5016925;28;20629;-73
2021/06/21 00:48:22;;;;;;;9.10;2.73;;;;;;;;;;5003440;28;20217;-73
2021/06/21 00:51:27;;;;;;;9.10;2.80;;;;;;;;;;5011024;28;20194;-73
2021/06/21 00:54:31;;;;;;;10.43;3.37;;;;;;;;;;4997051;28;20209;-73
2021/06/21 00:57:37;;;;;;;9.77;3.00;;;;;;;;;;5000632;28;20209;-73
2021/06/21 01:00:41;;;;;;;10.20;2.43;;;;;;;;;;5014730;28;20186;-74
2021/06/21 01:03:46;;;;;;;9.03;2.80;;;;;;;;;;4987948;28;20179;-74
2021/06/21 01:06:51;;;;;;;11.87;2.80;;;;;;;;;;4994178;28;20213;-74
2021/06/21 01:09:55;;;;;;;8.90;2.77;;;;;;;;;;4982135;28;20667;-73
2021/06/21 01:13:37;;;;;;;10.33;2.67;;;;;;;;;;5014028;28;20297;-73
2021/06/21 01:16:53;;;;;;;7.93;2.07;;;;;;;;;;4992337;28;20222;-73
2021/06/21 01:20:12;;;;;;;9.43;2.77;;;;;;;;;;5011173;28;20181;-73
2021/06/21 01:23:44;;;;;;;10.67;2.43;;;;;;;;;;5002920;28;20187;-73
2021/06/21 01:26:54;;;;;;;9.83;2.50;;;;;;;;;;4997261;28;20218;-73
2021/06/21 01:30:10;;;;;;;8.53;2.00;;;;;;;;;;5012420;28;20194;-73
2021/06/21 01:33:14;;;;;;;10.87;2.80;;;;;;;;;;5011687;28;20645;-73
2021/06/21 01:36:22;;;;;;;6.30;2.20;;;;;;;;;;4989050;28;20301;-74
2021/06/21 01:39:30;;;;;;;8.87;2.60;;;;;;;;;;4977192;28;20187;-74
2021/06/21 01:42:36;;;;;;;7.00;2.20;;;;;;;;;;4998108;28;20186;-73
2021/06/21 01:45:41;;;;;;;5.47;2.67;;;;;;;;;;5002145;28;20190;-73
2021/06/21 01:49:17;;;;;;;5.53;2.73;;;;;;;;;;4996145;28;20185;-73
2021/06/21 01:52:23;;;;;;;10.90;2.40;;;;;;;;;;4991843;28;20185;-74
2021/06/21 01:55:29;;;;;;;7.87;2.50;;;;;;;;;;5005438;28;20214;-73
2021/06/21 01:58:35;;;;;;;10.00;2.40;;;;;;;;;;4996288;28;20178;-74
2021/06/21 02:01:42;;;;;;;4.80;2.20;;;;;;;;;;4999225;28;20189;-73
2021/06/21 02:04:53;;;;;;;8.37;2.37;;;;;;;;;;5015297;28;20178;-74
2021/06/21 02:07:58;;;;;;;9.47;2.23;;;;;;;;;;5007435;28;20577;-73
2021/06/21 02:11:08;;;;;;;10.17;2.83;;;;;;;;;;5010058;28;20190;-73
2021/06/21 02:14:13;;;;;;;6.40;2.40;;;;;;;;;;4996689;28;20665;-73
2021/06/21 02:17:21;;;;;;;7.43;2.33;;;;;;;;;;4994997;28;20225;-73
2021/06/21 02:20:26;;;;;;;10.40;2.53;;;;;;;;;;4992677;28;20530;-74
2021/06/21 02:23:30;;;;;;;11.30;3.07;;;;;;;;;;4998098;28;20537;-73
2021/06/21 02:26:35;;;;;;;7.57;2.63;;;;;;;;;;4995943;28;20704;-73
2021/06/21 02:29:39;;;;;;;6.87;2.57;;;;;;;;;;5006943;28;20189;-74
2021/06/21 02:32:46;;;;;;;9.80;2.83;;;;;;;;;;5012829;28;20644;-75
2021/06/21 02:35:51;;;;;;;8.47;2.73;;;;;;;;;;5004084;28;20221;-74
2021/06/21 02:38:57;;;;;;;9.90;2.73;;;;;;;;;;5005319;28;20645;-74
2021/06/21 02:42:02;;;;;;;10.77;2.23;;;;;;;;;;4983099;28;20198;-75
2021/06/21 02:45:08;;;;;;;5.43;2.27;;;;;;;;;;4999624;28;20201;-75
2021/06/21 02:48:13;;;;;;;9.10;1.90;;;;;;;;;;5011272;28;20213;-74
2021/06/21 02:51:34;;;;;;;6.13;2.30;;;;;;;;;;4988539;28;20201;-74
2021/06/21 02:55:08;;;;;;;9.33;2.17;;;;;;;;;;5014556;28;20189;-75
2021/06/21 02:58:23;;;;;;;8.93;2.13;;;;;;;;;;5005173;28;20214;-74
2021/06/21 03:01:28;;;;;;;17.83;2.33;;;;;;;;;;5003032;28;20198;-74
2021/06/21 03:04:34;;;;;;;13.57;2.70;;;;;;;;;;4996827;28;20185;-75
2021/06/21 03:07:41;;;;;;;8.20;2.50;;;;;;;;;;4999365;28;20212;-74
2021/06/21 03:10:47;;;;;;;9.03;2.67;;;;;;;;;;4975385;28;20174;-75
2021/06/21 03:13:54;;;;;;;7.33;1.70;;;;;;;;;;5003751;28;20220;-74
2021/06/21 03:16:58;;;;;;;10.27;2.47;;;;;;;;;;4996116;28;20226;-74
2021/06/21 03:20:04;;;;;;;5.27;1.90;;;;;;;;;;4997182;28;20190;-74
2021/06/21 03:23:09;;;;;;;9.10;2.20;;;;;;;;;;4974275;28;20633;-75
2021/06/21 03:26:13;;;;;;;9.63;2.20;;;;;;;;;;4985951;28;20190;-74
2021/06/21 03:29:20;;;;;;;9.53;2.03;;;;;;;;;;5002532;28;20201;-74
2021/06/21 03:32:33;;;;;;;7.67;2.57;;;;;;;;;;5009557;28;20189;-75
2021/06/21 03:35:37;;;;;;;8.37;2.07;;;;;;;;;;5006480;28;20522;-75
2021/06/21 03:38:42;;;;;;;14.77;2.90;;;;;;;;;;4999512;28;20185;-74
2021/06/21 03:41:46;;;;;;;8.07;2.57;;;;;;;;;;5041516;22;20220;-83
2021/06/21 03:44:51;;;;;;;9.03;2.50;;;;;;;;;;5010272;28;20192;-83
2021/06/21 03:47:55;;;;;;;12.27;2.57;;;;;;;;;;5021916;28;20172;-83
2021/06/21 03:50:59;;;;;;;6.33;2.17;;;;;;;;;;5022085;28;20636;-83
2021/06/21 03:54:03;;;;;;;9.87;2.37;;;;;;;;;;5033486;28;20192;-83
2021/06/21 03:57:09;;;;;;;7.57;2.53;;;;;;;;;;5020834;28;20555;-83
2021/06/21 04:00:16;;;;;;;8.13;2.37;;;;;;;;;;5003908;28;20648;-83
2021/06/21 04:03:21;;;;;;;11.10;2.67;;;;;;;;;;5003701;28;20186;-83
2021/06/21 04:06:25;;;;;;;11.57;2.60;;;;;;;;;;5006788;28;20177;-83
2021/06/21 04:09:29;;;;;;;11.27;2.50;;;;;;;;;;5023540;28;20184;-83
2021/06/21 04:12:35;;;;;;;6.70;2.33;;;;;;;;;;5014635;28;20699;-83
2021/06/21 04:15:39;;;;;;;7.63;2.13;;;;;;;;;;5014168;28;20525;-83
2021/06/21 04:18:43;;;;;;;10.73;2.13;;;;;;;;;;5007649;28;20193;-83
2021/06/21 04:21:47;;;;;;;12.67;2.43;;;;;;;;;;5010233;28;20220;-83
2021/06/21 04:24:52;;;;;;;10.83;2.40;;;;;;;;;;5015283;28;20177;-83
2021/06/21 04:27:56;;;;;;;12.27;2.13;;;;;;;;;;5014249;28;20185;-83
2021/06/21 04:31:01;;;;;;;7.20;1.83;;;;;;;;;;5014054;28;20185;-83
2021/06/21 04:34:05;;;;;;;9.57;2.10;;;;;;;;;;5025604;28;20663;-83
2021/06/21 04:37:09;;;;;;;10.40;2.00;;;;;;;;;;5024949;28;20667;-83
2021/06/21 04:40:17;;;;;;;9.93;1.73;;;;;;;;;;5013820;28;20528;-83
2021/06/21 04:43:21;;;;;;;12.63;2.43;;;;;;;;;;5012112;28;20208;-83
2021/06/21 04:46:26;;;;;;;7.93;2.07;;;;;;;;;;5023846;28;20302;-83
2021/06/21 04:49:30;;;;;;;11.13;2.33;;;;;;;;;;4999674;28;20189;-83
2021/06/21 04:52:35;;;;;;;10.23;2.07;;;;;;;;;;5015055;28;20217;-83
2021/06/21 04:55:41;;;;;;;8.03;2.30;;;;;;;;;;4992481;28;20181;-83
2021/06/21 04:58:45;;;;;;;10.93;2.20;;;;;;;;;;5018128;28;20193;-87
2021/06/21 05:01:49;;;;;;;15.10;2.47;;;;;;;;;;5010900;28;20223;-83
2021/06/21 05:04:53;;;;;;;10.03;2.00;;;;;;;;;;5007933;28;20189;-82
2021/06/21 05:07:58;;;;;;;10.73;2.30;;;;;;;;;;5015949;28;20173;-86
2021/06/21 05:11:02;;;;;;;15.23;2.57;;;;;;;;;;5005399;28;20177;-84
2021/06/21 05:14:06;;;;;;;12.77;2.50;;;;;;;;;;5022815;28;20204;-83
2021/06/21 05:17:11;;;;;;;11.33;2.60;;;;;;;;;;5033408;28;20563;-83
2021/06/21 05:20:15;;;;;;;9.07;2.50;;;;;;;;;;5013519;28;20655;-84
2021/06/21 05:23:20;;;;;;;16.30;2.70;;;;;;;;;;5009517;28;20220;-84
2021/06/21 05:26:24;;;;;;;7.93;2.07;;;;;;;;;;5028192;28;20576;-84
2021/06/21 05:29:29;;;;;;;10.77;2.60;;;;;;;;;;5035802;28;20544;-83
2021/06/21 05:32:35;;;;;;;8.47;2.07;;;;;;;;;;5007063;28;20217;-84
2021/06/21 05:35:39;;;;;;;12.97;2.40;;;;;;;;;;5016003;28;20204;-84
2021/06/21 05:38:43;;;;;;;10.83;2.60;;;;;;;;;;5031121;28;20189;-84
2021/06/21 05:41:47;;;;;;;12.27;2.60;;;;;;;;;;5017349;28;20221;-84
2021/06/21 05:44:51;;;;;;;8.17;2.43;;;;;;;;;;5023915;28;20192;-84
2021/06/21 05:47:56;;;;;;;9.80;2.67;;;;;;;;;;5021593;28;20635;-84
2021/06/21 05:51:01;;;;;;;8.53;2.47;;;;;;;;;;5022420;28;20655;-84
2021/06/21 05:54:05;;;;;;;8.47;2.50;;;;;;;;;;5024412;28;20180;-84
2021/06/21 05:57:09;;;;;;;9.93;2.33;;;;;;;;;;5024314;28;20205;-84
2021/06/21 06:00:14;;;;;;;13.90;2.30;;;;;;;;;;5025689;28;20193;-84
2021/06/21 06:03:18;;;;;;;11.27;2.07;;;;;;;;;;5005145;28;20209;-84
2021/06/21 06:06:22;;;;;;;14.23;2.67;;;;;;;;;;5005934;28;20186;-84
2021/06/21 06:09:26;;;;;;;11.37;2.80;;;;;;;;;;5008100;28;20193;-84
2021/06/21 06:12:30;;;;;;;11.00;2.67;;;;;;;;;;5023063;28;20220;-85
2021/06/21 06:15:34;;;;;;;15.97;2.60;;;;;;;;;;5015711;28;20660;-84
2021/06/21 06:18:39;;;;;;;8.63;2.40;;;;;;;;;;5014575;28;20217;-84
2021/06/21 06:21:43;;;;;;;12.73;2.50;;;;;;;;;;4992669;28;20221;-84
2021/06/21 06:24:47;;;;;;;6.83;1.93;;;;;;;;;;5029604;28;20192;-84
2021/06/21 06:27:53;;;;;;;12.47;2.13;;;;;;;;;;5014675;28;20189;-85
2021/06/21 06:30:58;;;;;;;8.43;2.10;;;;;;;;;;4995597;28;20533;-84
2021/06/21 06:34:02;;;;;;;10.53;2.13;;;;;;;;;;5025904;28;20185;-84
2021/06/21 06:37:06;;;;;;;13.13;2.20;;;;;;;;;;5003559;28;20669;-84
2021/06/21 06:40:11;;;;;;;11.97;1.80;;;;;;;;;;4996028;28;20202;-84
2021/06/21 06:43:15;;;;;;;14.57;2.00;;;;;;;;;;5003205;28;20684;-84
2021/06/21 06:46:19;;;;;;;8.03;1.80;;;;;;;;;;5003203;28;20181;-84
2021/06/21 06:49:23;;;;;;;11.87;2.30;;;;;;;;;;4992114;28;20173;-84
2021/06/21 06:52:28;;;;;;;12.23;2.30;;;;;;;;;;4991911;28;20239;-84
2021/06/21 06:58:56;;;;;;;11.33;1.87;;;;;;;;;;5022211;28;20209;-84
2021/06/21 07:02:02;;;;;;;10.47;1.97;;;;;;;;;;5022756;28;20221;-84
2021/06/21 07:05:07;;;;;;;9.70;1.83;;;;;;;;;;5009112;28;20652;-84
2021/06/21 07:08:11;;;;;;;6.90;1.77;;;;;;;;;;4999882;28;20186;-84
2021/06/21 07:11:16;;;;;;;11.73;2.00;;;;;;;;;;5018714;28;20197;-87
2021/06/21 07:14:20;;;;;;;9.77;1.80;;;;;;;;;;5002819;28;20523;-85
2021/06/21 07:17:24;;;;;;;9.97;1.70;;;;;;;;;;5002164;28;20250;-85
2021/06/21 07:20:28;;;;;;;10.33;1.80;;;;;;;;;;5002326;28;20205;-83
2021/06/21 07:23:32;;;;;;;8.47;1.87;;;;;;;;;;5013602;28;20199;-83
2021/06/21 07:26:38;;;;;;;11.17;2.10;;;;;;;;;;5025211;28;20652;-83
2021/06/21 07:29:42;;;;;;;10.00;2.10;;;;;;;;;;5010966;28;20186;-83
2021/06/21 07:32:46;;;;;;;5.80;1.73;;;;;;;;;;5021663;28;20222;-83
2021/06/21 07:35:50;;;;;;;8.47;1.80;;;;;;;;;;4991104;28;20201;-83
2021/06/21 07:38:55;;;;;;;6.67;1.90;;;;;;;;;;5002761;28;20208;-83
2021/06/21 07:41:59;;;;;;;7.67;2.07;;;;;;;;;;5017184;28;20576;-83
2021/06/21 07:45:04;;;;;;;11.27;1.90;;;;;;;;;;5001954;28;20183;-83
2021/06/21 07:48:09;;;;;;;8.17;2.07;;;;;;;;;;4991138;28;20175;-83
2021/06/21 07:51:14;;;;;;;6.10;1.65;;;;;;;;;;5020980;28;20537;-84
2021/06/21 07:54:20;;;;;;;12.63;2.20;;;;;;;;;;5032947;28;20191;-83
2021/06/21 07:57:28;;;;;;;8.23;2.25;;;;;;;;;;5013139;28;20209;-83
2021/06/21 08:00:33;;;;;;;6.55;1.60;;;;;;;;;;5032748;28;20661;-83
2021/06/21 08:03:41;;;;;;;7.18;1.92;;;;;;;;;;5021306;28;20200;-83
2021/06/21 08:06:46;;;;;;;6.03;1.80;;;;;;;;;;5005712;28;20197;-83
2021/06/21 08:09:50;;;;;;;6.88;1.70;;;;;;;;;;4991160;28;20204;-83
2021/06/21 08:12:54;;;;;;;12.20;2.00;;;;;;;;;;5018181;28;20693;-83
2021/06/21 08:15:58;;;;;;;4.88;1.52;;;;;;;;;;5014322;28;20198;-83
2021/06/21 08:19:02;;;;;;;9.07;2.20;;;;;;;;;;5001687;28;20568;-84
2021/06/21 08:22:07;;;;;;;7.95;1.80;;;;;;;;;;5031032;28;20227;-83
2021/06/21 08:25:11;;;;;;;13.35;2.00;;;;;;;;;;5013304;28;20208;-83
2021/06/21 08:28:15;;;;;;;6.82;1.75;;;;;;;;;;5021066;28;20192;-83
2021/06/21 08:31:19;;;;;;;11.23;1.58;;;;;;;;;;5022232;28;20685;-83
2021/06/21 08:34:24;;;;;;;8.45;1.60;;;;;;;;;;5024579;28;20208;-83
2021/06/21 08:37:28;;;;;;;7.65;1.67;;;;;;;;;;5025678;28;20219;-83
2021/06/21 08:40:33;;;;;;;11.55;2.00;;;;;;;;;;5022996;28;20188;-84
2021/06/21 08:43:38;;;;;;;8.30;1.80;;;;;;;;;;5004036;28;20193;-83
2021/06/21 08:46:43;;;;;;;6.55;1.92;;;;;;;;;;5036489;28;20181;-84
2021/06/21 08:49:48;;;;;;;5.95;1.33;;;;;;;;;;5024356;28;20184;-84
2021/06/21 08:52:52;;;;;;;13.60;1.90;;;;;;;;;;5033583;28;20217;-83
2021/06/21 08:55:57;;;;;;;6.43;1.88;;;;;;;;;;5015982;28;20200;-84
2021/06/21 08:59:06;;;;;;;5.20;1.58;;;;;;;;;;5005237;28;20671;-84
2021/06/21 09:02:13;;;;;;;10.68;1.80;;;;;;;;;;5004996;28;20213;-83
2021/06/21 09:05:18;;;;;;;8.48;1.52;;;;;;;;;;5016129;28;20182;-84
2021/06/21 09:08:22;;;;;;;6.75;1.70;;;;;;;;;;5020648;28;20182;-83
2021/06/21 09:11:44;;;;;;;6.25;1.70;;;;;;;;;;5016338;28;20692;-83
2021/06/21 09:14:49;;;;;;;12.20;2.03;;;;;;;;;;5005326;28;20198;-84
2021/06/21 09:17:54;;;;;;;4.50;1.67;;;;;;;;;;5025037;28;20202;-84
2021/06/21 09:21:25;;;;;;;6.43;1.27;;;;;;;;;;5025044;28;20643;-84
2021/06/21 09:24:29;;;;;;;6.22;1.30;;;;;;;;;;5036064;28;20173;-84
2021/06/21 09:27:35;;;;;;;11.75;1.75;;;;;;;;;;5023618;28;20193;-84
2021/06/21 09:30:50;;;;;;;7.22;2.63;;;;;;;;;;5035657;28;20181;-84
2021/06/21 09:34:15;;;;;;;5.70;1.50;;;;;;;;;;5023490;28;20190;-83
2021/06/21 09:37:19;;;;;;;6.60;1.80;;;;;;;;;;5023118;28;20198;-83
2021/06/21 09:40:36;;;;;;;11.23;2.03;;;;;;;;;;5035114;28;20537;-84
2021/06/21 09:43:41;;;;;;;7.85;1.70;;;;;;;;;;5046644;22;20225;-82
2021/06/21 09:46:45;;;;;;;7.43;1.50;;;;;;;;;;4982665;28;20651;-82
2021/06/21 09:49:53;;;;;;;8.00;1.45;;;;;;;;;;5034769;28;20643;-83
2021/06/21 09:52:59;;;;;;;7.65;1.88;;;;;;;;;;5006717;28;20218;-82
2021/06/21 09:56:03;;;;;;;9.43;2.10;;;;;;;;;;4976142;28;20187;-82
2021/06/21 09:59:18;;;;;;;8.20;1.55;;;;;;;;;;5003927;28;20213;-82
2021/06/21 10:02:24;;;;;;;7.43;1.60;;;;;;;;;;4992708;28;20190;-82
2021/06/21 10:05:29;;;;;;;5.05;1.50;;;;;;;;;;4985203;28;20630;-82
2021/06/21 10:08:53;;;;;;;8.00;1.65;;;;;;;;;;4995761;28;20512;-82
2021/06/21 10:11:57;;;;;;;8.68;1.70;;;;;;;;;;4984393;28;20179;-82
2021/06/21 10:15:03;;;;;;;5.10;1.50;;;;;;;;;;4992172;28;20667;-82
2021/06/21 10:18:07;;;;;;;10.30;2.00;;;;;;;;;;5004378;28;20206;-83
2021/06/21 10:21:11;;;;;;;7.63;1.92;;;;;;;;;;5004174;28;20178;-82
2021/06/21 10:24:17;;;;;;;5.38;1.30;;;;;;;;;;4992166;28;20226;-82
2021/06/21 10:27:23;;;;;;;6.57;1.67;;;;;;;;;;5014241;28;20194;-82
2021/06/21 10:30:28;;;;;;;5.15;1.17;;;;;;;;;;5004126;28;20174;-82
2021/06/21 10:33:34;;;;;;;7.90;1.67;;;;;;;;;;5014938;28;20225;-82
2021/06/21 10:36:52;;;;;;;6.40;1.52;;;;;;;;;;5003350;28;20194;-82
2021/06/21 10:40:09;;;;;;;4.97;1.35;;;;;;;;;;5015812;28;20209;-82
2021/06/21 10:43:40;;;;;;;5.20;1.23;;;;;;;;;;4964925;28;20714;-82
2021/06/21 10:46:45;;;;;;;5.30;1.40;;;;;;;;;;5002021;28;20194;-83
2021/06/21 10:49:58;;;;;;;5.60;1.35;;;;;;;;;;5013285;28;20653;-82
2021/06/21 10:53:02;;;;;;;3.80;1.20;;;;;;;;;;4990553;28;20221;-82
2021/06/21 10:56:06;;;;;;;5.70;1.10;;;;;;;;;;4983628;28;20197;-82
2021/06/21 10:59:12;;;;;;;3.80;1.02;;;;;;;;;;5002693;28;20214;-83
2021/06/21 11:02:35;;;;;;;5.90;1.48;;;;;;;;;;5014425;28;20186;-83
2021/06/21 11:05:41;;;;;;;4.43;1.20;;;;;;;;;;5002902;28;20190;-83
2021/06/21 11:08:50;;;;;;;7.50;1.20;;;;;;;;;;5013579;28;20194;-82
2021/06/21 11:11:54;;;;;;;6.35;1.33;;;;;;;;;;5002393;28;20182;-83
2021/06/21 11:18:22;;;;;;;4.95;1.17;;;;;;;;;;5013637;28;20182;-83
2021/06/21 11:21:26;;;;;;;6.57;1.48;;;;;;;;;;4990950;28;20525;-83
2021/06/21 11:24:37;;;;;;;4.85;1.27;;;;;;;;;;4977787;28;20221;-83
2021/06/21 11:27:43;;;;;;;5.22;1.25;;;;;;;;;;5001776;28;20198;-83
2021/06/21 11:30:48;;;;;;;3.03;1.20;;;;;;;;;;5001519;28;20193;-83
2021/06/21 11:34:01;;;;;;;2.22;1.10;;;;;;;;;;5012928;28;20225;-83
2021/06/21 11:37:28;;;;;;;4.53;1.23;;;;;;;;;;5013816;28;20193;-83
2021/06/21 11:40:33;;;;;;;6.30;1.38;;;;;;;;;;4990928;28;20174;-83
2021/06/21 11:43:49;;;;;;;8.25;1.65;;;;;;;;;;4978146;28;20708;-83
2021/06/21 11:46:53;;;;;;;4.25;1.30;;;;;;;;;;4985251;28;20195;-83
2021/06/21 11:50:13;;;;;;;8.52;1.27;;;;;;;;;;4963109;28;20179;-83
2021/06/21 11:53:18;;;;;;;7.45;1.25;;;;;;;;;;4981287;28;20225;-83
2021/06/21 11:56:27;;;;;;;6.10;1.40;;;;;;;;;;5013467;28;20177;-82
2021/06/21 11:59:37;;;;;;;6.05;1.48;;;;;;;;;;5013080;28;20676;-83
2021/06/21 12:02:41;;;;;;;6.22;1.30;;;;;;;;;;5013083;28;20218;-83
2021/06/21 12:05:54;;;;;;;5.72;1.77;;;;;;;;;;4990950;28;20637;-83
2021/06/21 12:08:58;;;;;;;10.60;1.80;;;;;;;;;;5017166;28;20197;-83
2021/06/21 12:12:03;;;;;;;5.05;1.40;;;;;;;;;;4978212;28;20527;-82
2021/06/21 12:15:13;;;;;;;6.97;1.70;;;;;;;;;;4997571;28;20198;-82
2021/06/21 12:18:27;;;;;;;7.18;1.63;;;;;;;;;;5017481;28;20625;-82
2021/06/21 12:21:42;;;;;;;5.47;1.63;;;;;;;;;;5005500;28;20198;-82
2021/06/21 12:24:46;;;;;;;6.25;1.70;;;;;;;;;;4984706;28;20206;-83
2021/06/21 12:27:52;;;;;;;8.05;1.67;;;;;;;;;;4986390;28;20665;-83
2021/06/21 12:30:59;;;;;;;9.27;1.83;;;;;;;;;;4999753;28;20186;-83
2021/06/21 12:34:03;;;;;;;5.60;1.98;;;;;;;;;;4992397;28;20692;-83
2021/06/21 12:37:22;;;;;;;8.02;2.03;;;;;;;;;;5015627;28;20198;-83
2021/06/21 12:40:26;;;;;;;5.55;1.35;;;;;;;;;;4991728;28;20214;-83
2021/06/21 12:43:30;;;;;;;6.90;1.48;;;;;;;;;;4994249;28;20234;-83
2021/06/21 12:46:37;;;;;;;5.72;1.55;;;;;;;;;;4983766;28;20191;-83
2021/06/21 12:49:41;;;;;;;6.30;1.42;;;;;;;;;;4972785;28;20187;-83
2021/06/21 12:52:49;;;;;;;7.88;2.03;;;;;;;;;;4994823;28;20222;-84
2021/06/21 12:55:59;;;;;;;6.40;1.90;;;;;;;;;;4972355;28;20191;-83
2021/06/21 12:59:23;;;;;;;5.85;1.77;;;;;;;;;;4997529;28;20214;-83
2021/06/21 13:02:27;;;;;;;6.10;1.52;;;;;;;;;;4991630;28;20174;-83
2021/06/21 13:05:39;;;;;;;4.90;1.60;;;;;;;;;;5014056;28;20182;-83
2021/06/21 13:08:43;;;;;;;8.10;2.15;;;;;;;;;;4991816;28;20182;-83
2021/06/21 13:11:48;;;;;;;5.97;1.88;;;;;;;;;;4992160;28;20193;-83
2021/06/21 13:15:07;;;;;;;7.50;1.95;;;;;;;;;;5014102;28;20174;-82
2021/06/21 13:18:12;;;;;;;7.25;1.73;;;;;;;;;;4991066;28;20186;-83
2021/06/21 13:21:39;;;;;;;4.97;1.60;;;;;;;;;;5014090;28;20174;-85
2021/06/21 13:24:43;;;;;;;6.43;1.70;;;;;;;;;;4953106;28;20184;-84
2021/06/21 13:28:13;;;;;;;6.85;1.55;;;;;;;;;;4985302;28;20190;-84
2021/06/21 13:31:22;;;;;;;5.90;1.48;;;;;;;;;;5003030;28;20537;-83
2021/06/21 13:34:44;;;;;;;20.00;2.65;;;;;;;;;;5002664;28;20218;-84
2021/06/21 13:37:48;;;;;;;8.57;1.48;;;;;;;;;;5013692;28;20618;-84
2021/06/21 13:40:54;;;;;;;4.88;1.63;;;;;;;;;;5013615;28;20229;-84
2021/06/21 13:44:09;;;;;;;6.50;1.40;;;;;;;;;;5002212;28;20225;-84
2021/06/21 13:47:32;;;;;;;7.13;1.67;;;;;;;;;;5002685;28;20178;-83
2021/06/21 13:50:37;;;;;;;6.03;1.70;;;;;;;;;;5002642;28;20918;-83
2021/06/21 13:53:42;;;;;;;5.80;1.63;;;;;;;;;;4990598;28;20209;-83
2021/06/21 13:56:47;;;;;;;5.25;1.50;;;;;;;;;;5002477;28;20186;-82
2021/06/21 13:59:51;;;;;;;7.63;1.80;;;;;;;;;;5002641;28;20210;-82
2021/06/21 14:02:56;;;;;;;8.27;1.80;;;;;;;;;;5002607;28;20799;-82
2021/06/21 14:06:03;;;;;;;13.63;1.88;;;;;;;;;;5002163;28;20181;-82
2021/06/21 14:09:10;;;;;;;7.10;1.85;;;;;;;;;;5013661;28;20186;-84
2021/06/21 14:12:14;;;;;;;11.00;2.25;;;;;;;;;;5014041;28;20181;-82
2021/06/21 14:15:19;;;;;;;10.65;1.75;;;;;;;;;;5002558;28;20185;-82
2021/06/21 14:18:24;;;;;;;8.15;1.48;;;;;;;;;;4990872;28;20181;-83
2021/06/21 14:21:29;;;;;;;6.10;1.73;;;;;;;;;;5002740;28;20174;-83
2021/06/21 14:24:33;;;;;;;9.77;2.10;;;;;;;;;;5014691;28;20209;-82
2021/06/21 14:27:40;;;;;;;6.65;1.73;;;;;;;;;;5013277;28;20182;-83
2021/06/21 14:30:45;;;;;;;23.05;2.20;;;;;;;;;;5001205;28;20175;-82
2021/06/21 14:33:51;;;;;;;9.82;1.92;;;;;;;;;;4991448;28;20218;-82
2021/06/21 14:36:55;;;;;;;12.13;2.03;;;;;;;;;;5013386;28;20185;-82
2021/06/21 14:40:01;;;;;;;8.73;2.15;;;;;;;;;;5001509;28;20209;-83
2021/06/21 14:43:06;;;;;;;17.77;2.45;;;;;;;;;;5001034;28;20225;-82
2021/06/21 14:46:11;;;;;;;9.30;1.75;;;;;;;;;;5002340;28;20188;-82
2021/06/21 14:49:15;;;;;;;6.38;2.10;;;;;;;;;;5014026;28;20186;-82
2021/06/21 14:52:19;;;;;;;9.60;1.90;;;;;;;;;;5003480;28;20181;-82
2021/06/21 14:55:24;;;;;;;7.43;1.98;;;;;;;;;;5004397;28;20178;-83
2021/06/21 14:58:29;;;;;;;9.13;2.33;;;;;;;;;;5002537;28;20178;-82
2021/06/21 15:01:33;;;;;;;12.25;2.45;;;;;;;;;;5015036;28;20210;-83
2021/06/21 15:04:37;;;;;;;10.07;2.47;;;;;;;;;;4990508;28;20538;-82
2021/06/21 15:07:43;;;;;;;11.30;2.30;;;;;;;;;;5012596;28;20189;-82
2021/06/21 15:10:47;;;;;;;11.13;2.08;;;;;;;;;;5012830;28;20178;-83
2021/06/21 15:13:52;;;;;;;7.40;1.85;;;;;;;;;;5011994;28;20217;-82
2021/06/21 15:16:56;;;;;;;12.77;2.05;;;;;;;;;;5000608;28;20178;-81
2021/06/21 15:20:01;;;;;;;10.07;2.00;;;;;;;;;;5000988;28;20284;-82
2021/06/21 15:23:06;;;;;;;9.10;1.83;;;;;;;;;;5011960;28;20213;-83
2021/06/21 15:26:11;;;;;;;8.90;2.25;;;;;;;;;;4990033;28;20181;-82
2021/06/21 15:29:15;;;;;;;12.88;2.45;;;;;;;;;;5001122;28;20664;-83
2021/06/21 15:32:19;;;;;;;19.05;3.03;;;;;;;;;;4989750;28;20193;-84
2021/06/21 15:35:26;;;;;;;11.70;2.63;;;;;;;;;;4951044;28;20207;-82
2021/06/21 15:38:30;;;;;;;10.57;2.03;;;;;;;;;;4973135;28;20551;-82
2021/06/21 15:41:34;;;;;;;10.60;2.13;;;;;;;;;;4950814;28;20211;-83
2021/06/21 15:44:39;;;;;;;8.23;2.00;;;;;;;;;;4964374;28;20198;-82
2021/06/21 15:47:43;;;;;;;11.52;1.85;;;;;;;;;;5000081;28;20201;-81
2021/06/21 15:50:48;;;;;;;12.05;2.40;;;;;;;;;;5012988;28;20185;-82
2021/06/21 15:53:52;;;;;;;18.05;2.63;;;;;;;;;;5011375;28;20217;-81
2021/06/21 15:56:56;;;;;;;10.77;2.17;;;;;;;;;;5012457;28;20181;-82
2021/06/21 16:00:00;;;;;;;12.80;2.47;;;;;;;;;;5011552;28;20209;-82
2021/06/21 16:03:08;;;;;;;10.25;2.47;;;;;;;;;;5001267;28;20215;-81
2021/06/21 16:06:13;;;;;;;8.60;2.03;;;;;;;;;;5012105;28;20181;-81
2021/06/21 16:09:17;;;;;;;11.00;2.33;;;;;;;;;;5011807;28;20201;-82
2021/06/21 16:12:22;;;;;;;11.90;2.28;;;;;;;;;;5011520;28;20680;-82
2021/06/21 16:15:26;;;;;;;5.43;1.63;;;;;;;;;;5011939;28;20196;-82
2021/06/21 16:18:30;;;;;;;7.43;1.88;;;;;;;;;;4989296;28;20644;-82
2021/06/21 16:21:35;;;;;;;10.40;2.05;;;;;;;;;;5000681;28;20209;-82
2021/06/21 16:24:39;;;;;;;8.18;1.70;;;;;;;;;;5000396;28;20759;-81
2021/06/21 16:27:44;;;;;;;13.45;2.58;;;;;;;;;;5000634;28;20749;-82
2021/06/21 16:30:48;;;;;;;14.40;1.77;;;;;;;;;;5000104;28;20203;-82
2021/06/21 16:33:52;;;;;;;11.55;2.30;;;;;;;;;;5000966;28;20227;-82
2021/06/21 16:36:56;;;;;;;8.38;1.92;;;;;;;;;;4989775;28;20204;-82
2021/06/21 16:40:17;;;;;;;10.10;2.00;;;;;;;;;;5012085;28;20213;-82
2021/06/21 16:43:22;;;;;;;11.00;1.90;;;;;;;;;;5011609;28;20222;-82
2021/06/21 16:46:26;;;;;;;13.55;2.20;;;;;;;;;;5000800;28;20198;-83
2021/06/21 16:49:30;;;;;;;8.60;1.98;;;;;;;;;;5011758;28;20637;-85
2021/06/21 16:52:34;;;;;;;7.70;2.20;;;;;;;;;;4973792;28;20711;-86
2021/06/21 16:55:42;;;;;;;13.48;2.05;;;;;;;;;;4975557;28;20176;-85
2021/06/21 16:58:46;;;;;;;19.08;2.67;;;;;;;;;;4965224;28;20180;-81
2021/06/21 17:01:51;;;;;;;12.85;1.85;;;;;;;;;;4976342;28;20227;-83
2021/06/21 17:04:56;;;;;;;12.68;2.28;;;;;;;;;;4975604;28;20181;-81
2021/06/21 17:08:00;;;;;;;13.77;2.55;;;;;;;;;;4964874;28;20181;-81
2021/06/21 17:11:04;;;;;;;8.90;1.70;;;;;;;;;;4965059;28;20192;-82
2021/06/21 17:14:09;;;;;;;10.23;2.10;;;;;;;;;;4964493;28;20232;-82
2021/06/21 17:17:13;;;;;;;9.50;2.35;;;;;;;;;;4999624;28;20184;-83
2021/06/21 17:20:24;;;;;;;10.50;2.15;;;;;;;;;;5003797;28;20219;-83
2021/06/21 17:23:29;;;;;;;7.38;1.92;;;;;;;;;;5015390;28;20226;-82
2021/06/21 17:26:34;;;;;;;12.02;2.22;;;;;;;;;;5015771;28;20664;-85
2021/06/21 17:29:38;;;;;;;12.95;2.33;;;;;;;;;;5014317;28;20202;-83
2021/06/21 17:32:42;;;;;;;16.00;2.35;;;;;;;;;;4992033;28;20565;-83
2021/06/21 17:35:46;;;;;;;27.00;3.20;;;;;;;;;;5003474;28;20178;-83
2021/06/21 17:38:50;;;;;;;20.95;2.70;;;;;;;;;;5003190;28;20203;-83
2021/06/21 17:41:54;;;;;;;6.10;2.00;;;;;;;;;;5004375;28;20231;-83
2021/06/21 17:44:58;;;;;;;11.68;2.10;;;;;;;;;;5004383;28;20197;-84
2021/06/21 17:48:03;;;;;;;7.47;1.73;;;;;;;;;;4994131;28;20643;-84
2021/06/21 17:51:07;;;;;;;11.33;2.20;;;;;;;;;;5015268;28;20187;-84
2021/06/21 17:54:12;;;;;;;11.13;2.10;;;;;;;;;;5003256;28;20223;-83
2021/06/21 17:57:16;;;;;;;8.30;1.87;;;;;;;;;;5015439;28;20201;-83
2021/06/21 18:00:28;;;;;;;7.37;1.93;;;;;;;;;;5003903;28;20208;-84
2021/06/21 18:03:32;;;;;;;10.30;2.17;;;;;;;;;;4964689;28;20220;-85
2021/06/21 18:06:37;;;;;;;6.17;1.53;;;;;;;;;;5006501;28;20184;-84
2021/06/21 18:09:41;;;;;;;9.07;1.90;;;;;;;;;;4965294;28;20191;-83
2021/06/21 18:12:46;;;;;;;8.10;1.67;;;;;;;;;;4992100;28;20216;-87
2021/06/21 18:15:50;;;;;;;8.50;2.03;;;;;;;;;;5003061;28;20195;-88
2021/06/21 18:18:55;;;;;;;6.47;1.97;;;;;;;;;;4991666;28;20211;-89
2021/06/21 18:21:59;;;;;;;6.90;2.60;;;;;;;;;;5014070;28;20207;-89
2021/06/21 18:25:05;;;;;;;11.00;2.40;;;;;;;;;;4991887;28;20183;-89
2021/06/21 18:28:11;;;;;;;7.00;2.13;;;;;;;;;;4991707;28;20187;-89
2021/06/21 18:31:15;;;;;;;7.73;1.73;;;;;;;;;;4991746;28;20185;-89
2021/06/21 18:34:19;;;;;;;8.57;1.87;;;;;;;;;;4991756;28;20678;-89
2021/06/21 18:37:23;;;;;;;7.83;2.10;;;;;;;;;;4991610;28;20173;-89
2021/06/21 18:40:28;;;;;;;6.70;1.93;;;;;;;;;;4992654;28;20189;-90